Hillman, Minnesota
Current Conditions -  °F | °C
As of 11:18 AM on Sunday 23 Nov 2014 (Local Time) from KLXL Reporting Station
Unknown Precip Unknown Precip  
Wind Chill: 36°   Ceiling: Unl
Heat Index: 36°   Visibility: 4mi
Dew Point: 34°   Wind: 0mph
Humidity: 93%   Direction: NA
Pressure: 29.45"   Gusts: NA
Location:  46°N, 93.89°W
Report Text: KLXL 231718Z AUTO 00000KT 4SM UP SCT007 02/01 A2945 RMK AO2
Loading
Personal Weather Stations






























Interactive Weather Map New forecast layout! Learn more

10-Day Weather Forecast

Advertisements
Track Severe Weather on mobile